Time;durP1;ratioP1;P1;durP2;ratioP2;P2;SDS_P1;SDS_P2;PMS_P1;PMS_P2;Temp;Humidity;BMP_temperature;BMP_pressure;BME280_temperature;BME280_humidity;BME280_pressure;Samples;Min_cycle;Max_cycle;Signal;HPM_P1;HPM_P2
2022/03/28 00:00:20;;;;;;;1161.47;999.90;;;;;;;4.47;100.00;102101.91;5051068;28;20404;-80
2022/03/28 00:02:53;;;;;;;1167.95;999.90;;;;;;;4.37;100.00;102089.66;5051159;28;20053;-78
2022/03/28 00:05:28;;;;;;;1176.70;999.90;;;;;;;4.43;100.00;102082.59;5032799;28;20409;-78
2022/03/28 00:08:01;;;;;;;1185.95;999.90;;;;;;;4.42;100.00;102062.91;5029228;28;20050;-77
2022/03/28 00:10:34;;;;;;;1187.20;999.90;;;;;;;4.55;100.00;102080.16;5033618;28;20051;-79
2022/03/28 00:13:03;;;;;;;1193.63;999.90;;;;;;;4.58;100.00;102077.03;5041718;28;20053;-79
2022/03/28 00:15:36;;;;;;;1191.20;999.90;;;;;;;4.60;100.00;102078.50;5033101;28;20056;-79
2022/03/28 00:18:07;;;;;;;1191.93;999.90;;;;;;;4.59;100.00;102073.31;5032577;28;20076;-80
2022/03/28 00:20:42;;;;;;;1188.90;999.90;;;;;;;4.49;100.00;102065.63;5028826;28;20091;-78
2022/03/28 00:23:15;;;;;;;1181.38;999.90;;;;;;;4.45;100.00;102069.78;5029113;28;20056;-79
2022/03/28 00:25:48;;;;;;;1186.82;999.90;;;;;;;4.52;100.00;102061.69;5033055;28;20784;-78
2022/03/28 00:28:16;;;;;;;1195.28;999.90;;;;;;;4.54;100.00;102063.16;5049993;28;20049;-79
2022/03/28 00:30:49;;;;;;;1197.05;999.90;;;;;;;4.45;100.00;102061.69;5049446;28;20136;-80
2022/03/28 00:33:22;;;;;;;1195.38;999.90;;;;;;;4.39;100.00;102055.25;5050619;28;20060;-78
2022/03/28 00:35:57;;;;;;;1198.80;999.90;;;;;;;4.53;100.00;102060.63;5049114;28;20409;-78
2022/03/28 00:38:30;;;;;;;1194.53;999.90;;;;;;;4.45;100.00;102056.28;5043668;28;20687;-79
2022/03/28 00:41:04;;;;;;;1194.18;999.90;;;;;;;4.51;100.00;102062.72;5042131;28;20051;-78
2022/03/28 00:43:44;;;;;;;1196.28;999.90;;;;;;;4.53;100.00;102057.94;5048412;28;20175;-78
2022/03/28 00:46:17;;;;;;;1194.30;999.90;;;;;;;4.51;100.00;102054.63;5048516;28;20064;-78
2022/03/28 00:48:45;;;;;;;1192.13;999.90;;;;;;;4.46;100.00;102049.88;5045811;28;20049;-79
2022/03/28 00:51:22;;;;;;;1195.57;999.90;;;;;;;4.46;100.00;102049.03;5034317;28;20049;-78
2022/03/28 00:53:51;;;;;;;1199.82;999.90;;;;;;;4.44;100.00;102043.84;5037643;28;20497;-79
2022/03/28 00:56:20;;;;;;;1198.20;999.90;;;;;;;4.41;100.00;102028.09;5041281;28;20045;-79
2022/03/28 00:58:53;;;;;;;1200.10;999.90;;;;;;;4.45;100.00;102039.25;5035825;28;20056;-79
2022/03/28 01:01:27;;;;;;;1201.32;999.90;;;;;;;4.45;100.00;102036.56;5036613;28;20492;-78
2022/03/28 01:04:00;;;;;;;1205.57;999.90;;;;;;;4.48;100.00;102020.81;5033886;28;20042;-79
2022/03/28 01:06:36;;;;;;;1205.22;999.90;;;;;;;4.49;100.00;102027.03;5037923;28;20041;-79
2022/03/28 01:09:09;;;;;;;1208.68;999.90;;;;;;;4.55;100.00;102024.34;5042740;28;20056;-78
2022/03/28 01:11:44;;;;;;;1209.13;999.90;;;;;;;4.54;100.00;102014.63;5035621;28;20552;-78
2022/03/28 01:14:17;;;;;;;1209.82;999.90;;;;;;;4.50;100.00;102015.22;5028822;28;20386;-78
2022/03/28 01:19:41;;;;;;;1204.07;999.90;;;;;;;4.39;100.00;102009.44;5038336;28;20067;-79
2022/03/28 01:22:15;;;;;;;1207.05;999.90;;;;;;;4.33;100.00;101990.53;5029942;28;20049;-80
2022/03/28 01:24:48;;;;;;;1213.07;999.90;;;;;;;4.35;100.00;101992.00;5033836;28;20037;-79
2022/03/28 01:27:16;;;;;;;1210.85;999.90;;;;;;;4.37;100.00;101983.72;5034158;28;20831;-79
2022/03/28 01:29:50;;;;;;;1215.90;999.90;;;;;;;4.37;100.00;101983.72;5057840;28;20370;-78
2022/03/28 01:32:24;;;;;;;1212.82;999.90;;;;;;;4.41;100.00;101987.66;5051682;28;20061;-79
2022/03/28 01:34:52;;;;;;;1213.63;999.90;;;;;;;4.25;100.00;101986.16;5030195;28;20565;-78
2022/03/28 01:37:26;;;;;;;1218.13;999.90;;;;;;;4.30;100.00;101988.28;5036843;28;20472;-79
2022/03/28 01:39:54;;;;;;;1219.93;999.90;;;;;;;4.32;100.00;101981.63;5045001;28;20060;-78
2022/03/28 01:42:27;;;;;;;1224.30;999.90;;;;;;;4.20;100.00;101972.50;5027972;28;20064;-78
2022/03/28 01:45:01;;;;;;;1224.60;999.90;;;;;;;4.28;100.00;101985.78;5027802;28;20054;-79
2022/03/28 01:47:34;;;;;;;1224.63;999.90;;;;;;;4.26;100.00;101980.56;5030017;28;20045;-79
2022/03/28 01:50:08;;;;;;;1221.32;999.90;;;;;;;4.21;100.00;101982.22;5029254;28;20056;-78
2022/03/28 01:52:43;;;;;;;1221.38;999.90;;;;;;;4.09;100.00;101973.94;5030278;28;20038;-78
2022/03/28 01:55:16;;;;;;;1219.97;999.90;;;;;;;4.04;100.00;101969.13;5028688;28;20041;-79
2022/03/28 01:57:45;;;;;;;1221.35;999.90;;;;;;;4.05;100.00;101967.28;5030034;28;20048;-78
2022/03/28 02:00:15;;;;;;;1223.55;999.90;;;;;;;4.00;100.00;101970.59;5028309;28;20060;-78
2022/03/28 02:02:49;;;;;;;1232.68;999.90;;;;;;;3.94;100.00;101968.72;5029958;28;20072;-78
2022/03/28 02:05:22;;;;;;;1238.45;999.90;;;;;;;3.96;100.00;101966.63;5028748;28;20049;-78
2022/03/28 02:07:52;;;;;;;1245.20;999.90;;;;;;;4.04;100.00;101965.63;5027732;28;20069;-79
2022/03/28 02:10:25;;;;;;;1246.53;999.90;;;;;;;4.09;100.00;101961.28;5030297;28;20058;-79
2022/03/28 02:12:58;;;;;;;1252.38;999.90;;;;;;;4.03;100.00;101953.19;5047730;28;20057;-78
2022/03/28 02:15:31;;;;;;;1248.63;999.90;;;;;;;4.02;100.00;101955.06;5049179;28;20448;-79
2022/03/28 02:18:05;;;;;;;1255.45;999.90;;;;;;;4.11;100.00;101952.19;5046450;28;20045;-79
2022/03/28 02:20:33;;;;;;;1261.05;999.90;;;;;;;4.13;100.00;101948.25;5048427;28;20049;-78
2022/03/28 02:23:08;;;;;;;1260.85;999.90;;;;;;;4.15;100.00;101948.03;5047427;28;20075;-78
2022/03/28 02:25:39;;;;;;;1255.32;999.90;;;;;;;4.13;100.00;101942.00;5043788;28;20055;-79
2022/03/28 02:28:12;;;;;;;1260.35;999.90;;;;;;;4.15;100.00;101935.38;5027228;28;20054;-79
2022/03/28 02:30:40;;;;;;;1261.10;999.90;;;;;;;4.21;100.00;101934.56;5028692;28;20792;-79
2022/03/28 02:33:14;;;;;;;1263.53;999.90;;;;;;;4.25;100.00;101929.59;5047114;28;20069;-79
2022/03/28 02:35:47;;;;;;;1264.55;999.90;;;;;;;4.22;100.00;101922.75;5047234;28;20052;-78
2022/03/28 02:38:16;;;;;;;1265.80;999.90;;;;;;;4.16;100.00;101922.75;5046887;28;20057;-79
2022/03/28 02:40:44;;;;;;;1265.45;999.90;;;;;;;4.12;100.00;101913.44;5053482;28;20048;-79
2022/03/28 02:43:19;;;;;;;1261.32;999.90;;;;;;;4.15;100.00;101923.78;5051422;28;20068;-80
2022/03/28 02:45:47;;;;;;;1264.95;999.90;;;;;;;4.11;100.00;101917.16;5067553;28;20057;-79
2022/03/28 02:48:20;;;;;;;1254.05;999.90;;;;;;;4.01;100.00;101925.63;5052076;28;20116;-80
2022/03/28 02:50:49;;;;;;;1255.47;999.90;;;;;;;3.96;100.00;101918.16;5052531;28;20052;-78
2022/03/28 02:53:23;;;;;;;1251.95;999.90;;;;;;;3.91;100.00;101918.78;5052452;28;20056;-79
2022/03/28 02:55:56;;;;;;;1253.80;999.90;;;;;;;3.90;100.00;101921.69;5045624;28;20055;-79
2022/03/28 02:58:30;;;;;;;1250.80;999.90;;;;;;;3.86;100.00;101926.63;5030633;28;20053;-78
2022/03/28 03:01:03;;;;;;;1252.78;999.90;;;;;;;3.87;100.00;101932.88;5032272;28;20057;-79
2022/03/28 03:03:36;;;;;;;1244.72;999.90;;;;;;;3.69;100.00;101925.38;5031377;28;20054;-79
2022/03/28 03:06:09;;;;;;;1251.38;999.90;;;;;;;3.78;100.00;101921.44;5032186;28;20068;-80
2022/03/28 03:08:39;;;;;;;1256.28;999.90;;;;;;;3.85;100.00;101921.47;5031786;28;20054;-78
2022/03/28 03:11:12;;;;;;;1258.85;999.90;;;;;;;3.80;100.00;101918.53;5045769;28;20060;-78
2022/03/28 03:13:40;;;;;;;1262.13;999.90;;;;;;;3.66;100.00;101921.22;5037126;28;20061;-79
2022/03/28 03:16:13;;;;;;;1261.35;999.90;;;;;;;3.61;100.00;101907.53;5031008;28;20061;-78
2022/03/28 03:18:47;;;;;;;1267.53;999.90;;;;;;;3.66;100.00;101913.13;5032562;28;20805;-78
2022/03/28 03:21:20;;;;;;;1268.68;999.90;;;;;;;3.74;100.00;101918.34;5046724;28;20820;-79
2022/03/28 03:23:55;;;;;;;1273.63;999.90;;;;;;;3.66;100.00;101901.53;5036403;28;20053;-79
2022/03/28 03:26:28;;;;;;;1275.40;999.90;;;;;;;3.74;100.00;101904.88;5046765;28;20417;-79
2022/03/28 03:29:01;;;;;;;1278.15;999.90;;;;;;;3.73;100.00;101897.81;5039980;28;20049;-79
2022/03/28 03:31:34;;;;;;;1280.32;999.90;;;;;;;3.71;100.00;101893.69;5034401;28;20060;-79
2022/03/28 03:34:07;;;;;;;1280.30;999.90;;;;;;;3.66;100.00;101883.53;5046794;28;20049;-79
2022/03/28 03:36:41;;;;;;;1279.25;999.90;;;;;;;3.65;100.00;101891.81;5029747;28;20532;-79
2022/03/28 03:39:15;;;;;;;1282.00;999.90;;;;;;;3.74;100.00;101899.50;5031544;28;20037;-78
2022/03/28 03:41:48;;;;;;;1286.28;999.90;;;;;;;3.69;100.00;101885.00;5031417;28;20052;-79
2022/03/28 03:44:22;;;;;;;1283.68;999.90;;;;;;;3.75;100.00;101890.34;5031546;28;20052;-79
2022/03/28 03:46:50;;;;;;;1280.75;999.90;;;;;;;3.77;100.00;101894.72;5029772;28;20128;-79
2022/03/28 03:49:23;;;;;;;1280.93;999.90;;;;;;;3.80;100.00;101887.06;5048401;28;20044;-79
2022/03/28 03:51:56;;;;;;;1284.13;999.90;;;;;;;3.84;100.00;101895.56;5053588;28;20188;-78
2022/03/28 03:54:31;;;;;;;1284.65;999.90;;;;;;;3.76;100.00;101893.91;5045291;28;20497;-79
2022/03/28 03:57:05;;;;;;;1283.63;999.90;;;;;;;3.74;100.00;101901.34;5030952;28;20512;-78
2022/03/28 03:59:38;;;;;;;1281.35;999.90;;;;;;;3.65;100.00;101891.81;5029528;28;20046;-77
2022/03/28 04:02:11;;;;;;;1277.03;999.90;;;;;;;3.62;100.00;101878.72;5032131;28;20049;-78
2022/03/28 04:04:39;;;;;;;1278.15;999.90;;;;;;;3.69;100.00;101883.13;5051041;28;20045;-78
2022/03/28 04:07:07;;;;;;;1278.75;999.90;;;;;;;3.63;100.00;101885.78;5050717;28;20053;-78
2022/03/28 04:09:42;;;;;;;1277.40;999.90;;;;;;;3.55;100.00;101873.38;5048704;28;20060;-78
2022/03/28 04:12:11;;;;;;;1280.50;999.90;;;;;;;3.62;100.00;101876.88;5066000;28;20696;-78
2022/03/28 04:14:44;;;;;;;1285.00;999.90;;;;;;;3.62;100.00;101878.72;5048815;28;20433;-78
2022/03/28 04:17:17;;;;;;;1285.70;999.90;;;;;;;3.58;100.00;101886.41;5049639;28;20056;-79
2022/03/28 04:19:50;;;;;;;1285.07;999.90;;;;;;;3.49;100.00;101858.81;5050503;28;20433;-79
2022/03/28 04:22:24;;;;;;;1288.05;999.90;;;;;;;3.62;100.00;101867.97;5049474;28;20053;-77
2022/03/28 04:24:58;;;;;;;1290.53;999.90;;;;;;;3.49;100.00;101852.63;5047749;28;20044;-78
2022/03/28 04:27:32;;;;;;;1292.65;999.90;;;;;;;3.62;100.00;101871.50;5030300;28;20072;-78
2022/03/28 04:30:00;;;;;;;1296.30;999.90;;;;;;;3.67;100.00;101868.19;5030639;28;20050;-79
2022/03/28 04:32:33;;;;;;;1297.32;999.90;;;;;;;3.60;100.00;101865.47;5043368;28;20052;-78
2022/03/28 04:35:08;;;;;;;1296.80;999.90;;;;;;;3.57;100.00;101858.63;5030898;28;20061;-78
2022/03/28 04:37:43;;;;;;;1299.72;999.90;;;;;;;3.67;100.00;101868.19;5030299;28;20491;-77
2022/03/28 04:40:18;;;;;;;1301.18;999.90;;;;;;;3.69;100.00;101866.13;5029236;28;20053;-79
2022/03/28 04:42:51;;;;;;;1304.57;999.90;;;;;;;3.64;100.00;101860.53;5029570;28;20808;-77
2022/03/28 04:45:20;;;;;;;1300.82;999.90;;;;;;;3.60;100.00;101852.03;5029397;28;20417;-78
2022/03/28 04:47:53;;;;;;;1302.07;999.90;;;;;;;3.67;100.00;101860.94;5028346;28;20064;-78
2022/03/28 04:50:21;;;;;;;1304.60;999.90;;;;;;;3.58;100.00;101857.63;5030510;28;20049;-80
2022/03/28 04:52:54;;;;;;;1303.30;999.90;;;;;;;3.61;100.00;101850.19;5045309;28;20057;-80
2022/03/28 04:55:29;;;;;;;1304.35;999.90;;;;;;;3.63;100.00;101856.16;5034505;28;20488;-79
2022/03/28 04:58:02;;;;;;;1307.03;999.90;;;;;;;3.59;100.00;101847.69;5049094;28;20585;-80
2022/03/28 05:00:35;;;;;;;1311.30;999.90;;;;;;;3.64;100.00;101852.47;5057613;28;20469;-79
2022/03/28 05:03:09;;;;;;;1310.78;999.90;;;;;;;3.65;100.00;101844.16;5049941;28;20053;-79
2022/03/28 05:05:42;;;;;;;1308.40;999.90;;;;;;;3.59;100.00;101834.25;5049773;28;20834;-79
2022/03/28 05:08:15;;;;;;;1309.25;999.90;;;;;;;3.57;100.00;101822.81;5030484;28;20053;-79
2022/03/28 05:10:49;;;;;;;1309.30;999.90;;;;;;;3.70;100.00;101840.84;5030269;28;20048;-79
2022/03/28 05:13:25;;;;;;;1312.35;999.90;;;;;;;3.68;100.00;101841.06;5029639;28;20478;-79
2022/03/28 05:15:53;;;;;;;1311.68;999.90;;;;;;;3.75;100.00;101838.38;5045753;28;20053;-79
2022/03/28 05:18:26;;;;;;;1313.00;999.90;;;;;;;3.79;100.00;101846.88;5047058;28;20049;-80
2022/03/28 05:20:55;;;;;;;1313.78;999.90;;;;;;;3.72;100.00;101844.19;5034389;28;20049;-80
2022/03/28 05:23:28;;;;;;;1311.82;999.90;;;;;;;3.72;100.00;101853.09;5042360;28;20803;-79
2022/03/28 05:26:03;;;;;;;1315.80;999.90;;;;;;;3.78;100.00;101847.91;5038779;28;20052;-79
2022/03/28 05:28:36;;;;;;;1316.78;999.90;;;;;;;3.82;100.00;101843.78;5037390;28;20486;-79
2022/03/28 05:31:09;;;;;;;1316.75;999.90;;;;;;;3.91;100.00;101842.56;5038896;28;20049;-79
2022/03/28 05:33:42;;;;;;;1316.45;999.90;;;;;;;3.91;100.00;101839.84;5030969;28;20061;-80
2022/03/28 05:36:16;;;;;;;1316.93;999.90;;;;;;;3.95;100.00;101826.78;5039622;28;20064;-79
2022/03/28 05:38:49;;;;;;;1320.57;999.90;;;;;;;3.85;100.00;101822.66;5039061;28;20045;-79
2022/03/28 05:41:24;;;;;;;1316.10;999.90;;;;;;;3.91;100.00;101821.81;5039381;28;20048;-79
2022/03/28 05:43:58;;;;;;;1321.88;999.90;;;;;;;3.91;100.00;101831.78;5047112;28;20087;-79
2022/03/28 05:46:31;;;;;;;1322.50;999.90;;;;;;;3.98;100.00;101823.66;5047752;28;20057;-79
2022/03/28 05:49:05;;;;;;;1322.40;999.90;;;;;;;3.86;100.00;101815.41;5048080;28;20064;-79
2022/03/28 05:51:38;;;;;;;1314.22;999.90;;;;;;;3.89;100.00;101818.53;5047704;28;20049;-80
2022/03/28 05:54:12;;;;;;;1316.70;999.90;;;;;;;3.99;100.00;101811.88;5048428;28;20417;-79
2022/03/28 05:56:49;;;;;;;1318.32;999.90;;;;;;;3.93;100.00;101805.44;5043208;28;20058;-79
2022/03/28 05:59:23;;;;;;;1319.03;999.90;;;;;;;3.92;100.00;101812.72;5027972;28;20060;-82
2022/03/28 06:01:51;;;;;;;1316.40;999.90;;;;;;;3.93;100.00;101808.16;5040281;28;20055;-78
2022/03/28 06:04:20;;;;;;;1314.82;999.90;;;;;;;3.90;100.00;101809.38;5049458;28;20064;-79
2022/03/28 06:06:53;;;;;;;1316.82;999.90;;;;;;;4.00;100.00;101808.16;5049129;28;20724;-79
2022/03/28 06:09:21;;;;;;;1321.80;999.90;;;;;;;4.06;100.00;101810.00;5041846;28;20171;-79
2022/03/28 06:11:56;;;;;;;1322.63;999.90;;;;;;;4.04;100.00;101804.81;5040695;28;20068;-79
2022/03/28 06:14:29;;;;;;;1322.55;999.90;;;;;;;4.08;100.00;101811.44;5048592;28;20057;-78
2022/03/28 06:17:02;;;;;;;1322.88;999.90;;;;;;;4.09;100.00;101809.59;5039419;28;20496;-78
2022/03/28 06:19:35;;;;;;;1326.60;999.90;;;;;;;4.09;100.00;101805.03;5043342;28;20071;-80
2022/03/28 06:22:09;;;;;;;1325.05;999.90;;;;;;;4.09;100.00;101805.03;5035256;28;20064;-79
2022/03/28 06:24:42;;;;;;;1322.57;999.90;;;;;;;3.95;100.00;101789.94;5046059;28;20056;-79
2022/03/28 06:27:16;;;;;;;1321.50;999.90;;;;;;;4.12;100.00;101795.69;5036811;28;20501;-79
2022/03/28 06:29:50;;;;;;;1325.53;999.90;;;;;;;4.14;100.00;101803.56;5032879;28;20060;-78
2022/03/28 06:32:23;;;;;;;1326.32;999.90;;;;;;;4.12;100.00;101795.69;5031591;28;20626;-78
2022/03/28 06:34:56;;;;;;;1325.40;999.90;;;;;;;4.12;100.00;101809.19;5031365;28;20049;-79
2022/03/28 06:37:29;;;;;;;1322.97;999.90;;;;;;;4.18;100.00;101813.72;5032612;28;20076;-79
2022/03/28 06:40:03;;;;;;;1324.68;999.90;;;;;;;4.22;100.00;101814.94;5032690;28;20049;-79
2022/03/28 06:42:38;;;;;;;1326.25;999.90;;;;;;;4.22;100.00;101804.19;5047452;28;20158;-79
2022/03/28 06:45:11;;;;;;;1323.40;999.90;;;;;;;4.15;100.00;101802.53;5039653;28;20057;-80
2022/03/28 06:47:40;;;;;;;1319.10;999.90;;;;;;;4.07;100.00;101790.97;5030970;28;20077;-79
2022/03/28 06:50:13;;;;;;;1319.60;999.90;;;;;;;4.16;100.00;101782.66;5031085;28;20057;-80
2022/03/28 06:52:41;;;;;;;1319.68;999.90;;;;;;;4.21;100.00;101794.47;5043579;28;20060;-79
2022/03/28 06:55:15;;;;;;;1324.03;999.90;;;;;;;4.19;100.00;101785.75;5050415;28;20060;-79
2022/03/28 06:57:44;;;;;;;1321.57;999.90;;;;;;;4.23;100.00;101786.16;5034301;28;20510;-79
2022/03/28 07:00:14;;;;;;;1321.10;999.90;;;;;;;4.23;100.00;101788.84;5035153;28;20417;-79
2022/03/28 07:02:42;;;;;;;1316.53;999.90;;;;;;;4.16;100.00;101767.31;5042151;28;20053;-79
2022/03/28 07:05:15;;;;;;;1316.65;999.90;;;;;;;4.25;100.00;101787.63;5047611;28;20048;-79
2022/03/28 07:07:50;;;;;;;1321.55;999.90;;;;;;;4.13;100.00;101781.22;5063068;28;20053;-78
2022/03/28 07:10:23;;;;;;;1325.82;999.90;;;;;;;4.11;100.00;101780.56;5041065;28;20053;-79
2022/03/28 07:12:54;;;;;;;1323.80;999.90;;;;;;;4.20;100.00;101773.94;5040575;28;20052;-79
2022/03/28 07:15:27;;;;;;;1325.13;999.90;;;;;;;4.11;100.00;101759.03;5046471;28;20059;-80
2022/03/28 07:18:06;;;;;;;1327.60;999.90;;;;;;;4.23;100.00;101770.81;5042507;28;20827;-77
2022/03/28 07:20:39;;;;;;;1335.25;999.90;;;;;;;4.32;100.00;101770.59;5038540;28;20057;-80
2022/03/28 07:23:13;;;;;;;1337.00;999.90;;;;;;;4.16;100.00;101771.88;5035662;28;20053;-79
2022/03/28 07:25:48;;;;;;;1326.85;999.90;;;;;;;4.16;100.00;101771.88;5052979;28;20060;-78
2022/03/28 07:28:23;;;;;;;1319.65;999.90;;;;;;;4.09;100.00;101770.00;5044632;28;20053;-78
2022/03/28 07:30:56;;;;;;;1316.25;999.90;;;;;;;4.11;100.00;101771.66;5036194;28;20065;-79
2022/03/28 07:33:29;;;;;;;1314.47;999.90;;;;;;;4.13;100.00;101762.34;5028882;28;20049;-80
2022/03/28 07:36:02;;;;;;;1314.90;999.90;;;;;;;3.98;100.00;101767.09;5034590;28;20067;-81
2022/03/28 07:38:31;;;;;;;1305.68;999.90;;;;;;;3.95;100.00;101746.84;5031138;28;20714;-79
2022/03/28 07:41:05;;;;;;;1300.20;999.90;;;;;;;4.14;100.00;101768.56;5030648;28;20065;-78
2022/03/28 07:43:39;;;;;;;1300.45;999.90;;;;;;;4.19;100.00;101766.06;5028026;28;20923;-82
2022/03/28 07:46:12;;;;;;;1303.07;999.90;;;;;;;4.38;100.00;101759.78;5024065;28;20061;-80
2022/03/28 07:48:45;;;;;;;1295.15;999.90;;;;;;;4.31;100.00;101752.75;5030433;28;20417;-80
2022/03/28 07:51:13;;;;;;;1294.43;999.90;;;;;;;4.45;100.00;101762.47;5035491;28;21457;-80
2022/03/28 07:53:48;;;;;;;1299.10;999.90;;;;;;;4.42;100.00;101754.81;5029287;28;20409;-81
2022/03/28 07:56:21;;;;;;;1290.43;999.90;;;;;;;4.41;100.00;101748.59;5046225;28;21261;-82
2022/03/28 07:58:55;;;;;;;1291.10;999.90;;;;;;;4.50;100.00;101749.19;5026394;28;20053;-81
2022/03/28 08:01:29;;;;;;;1294.63;999.90;;;;;;;4.61;100.00;101742.28;5025627;28;20067;-80
2022/03/28 08:04:03;;;;;;;1289.70;999.90;;;;;;;4.63;100.00;101751.00;5025595;28;20048;-81
2022/03/28 08:06:36;;;;;;;1283.20;999.90;;;;;;;4.82;100.00;101732.25;5028724;28;20061;-80
2022/03/28 08:09:09;;;;;;;1265.05;999.90;;;;;;;4.39;100.00;101714.78;5038959;28;20052;-80
2022/03/28 08:11:43;;;;;;;1251.85;999.90;;;;;;;4.61;100.00;101750.38;5034653;28;20436;-82
2022/03/28 08:14:12;;;;;;;1242.88;999.90;;;;;;;4.57;100.00;101733.81;5024668;28;20057;-80
2022/03/28 08:16:46;;;;;;;1243.85;999.90;;;;;;;4.76;100.00;101732.06;5026537;28;20053;-79
2022/03/28 08:19:19;;;;;;;1234.72;999.90;;;;;;;4.91;100.00;101741.75;5027045;28;20540;-79
2022/03/28 08:21:54;;;;;;;1220.82;999.90;;;;;;;4.84;100.00;101736.38;5029756;28;20049;-79
2022/03/28 08:24:22;;;;;;;1215.35;999.90;;;;;;;4.87;100.00;101733.25;5025638;28;20044;-82
2022/03/28 08:26:50;;;;;;;1206.72;999.90;;;;;;;4.85;100.00;101734.53;5026870;28;20057;-79
2022/03/28 08:29:25;;;;;;;1198.57;999.90;;;;;;;5.03;100.00;101734.63;5026140;28;20498;-81
2022/03/28 08:31:59;;;;;;;1188.63;999.90;;;;;;;5.17;100.00;101739.94;5022205;28;20139;-79
2022/03/28 08:34:32;;;;;;;1170.55;999.90;;;;;;;5.22;100.00;101734.69;5026463;28;20041;-80
2022/03/28 08:37:05;;;;;;;964.42;896.03;;;;;;;5.04;100.00;101724.63;5023567;28;20044;-79
2022/03/28 08:39:33;;;;;;;637.90;596.58;;;;;;;5.23;100.00;101718.31;5026968;28;20056;-81
2022/03/28 08:42:07;;;;;;;322.73;305.05;;;;;;;5.17;100.00;101699.47;5034024;28;20053;-82
2022/03/28 08:44:42;;;;;;;321.45;303.75;;;;;;;5.32;100.00;101697.28;5027460;28;20056;-80
2022/03/28 08:47:18;;;;;;;278.95;263.80;;;;;;;5.45;100.00;101704.44;5025965;28;20072;-80
2022/03/28 08:49:54;;;;;;;216.43;204.95;;;;;;;5.40;100.00;101712.34;5031072;28;21295;-80
2022/03/28 08:52:27;;;;;;;150.20;142.27;;;;;;;5.54;100.00;101710.41;5029487;28;20052;-81
2022/03/28 08:54:55;;;;;;;111.90;106.10;;;;;;;5.51;100.00;101710.81;5035504;28;20736;-79
2022/03/28 08:57:24;;;;;;;85.20;80.72;;;;;;;5.65;100.00;101714.22;5029755;28;20969;-79
2022/03/28 08:59:53;;;;;;;91.03;86.25;;;;;;;6.10;100.00;101698.66;5026342;28;20064;-81
2022/03/28 09:02:33;;;;;;;89.82;85.13;;;;;;;5.91;100.00;101702.34;5020638;28;20053;-79
2022/03/28 09:05:07;;;;;;;57.13;54.08;;;;;;;5.96;100.00;101703.31;5023268;28;20049;-83
2022/03/28 09:07:41;;;;;;;43.85;41.47;;;;;;;5.81;100.00;101708.25;5030140;28;20049;-79
2022/03/28 09:10:17;;;;;;;32.95;31.15;;;;;;;5.74;100.00;101696.69;5029520;28;20049;-80
2022/03/28 09:13:03;;;;;;;27.23;25.73;;;;;;;5.83;100.00;101683.72;5027627;28;20064;-77
2022/03/28 09:15:55;;;;;;;27.85;26.27;;;;;;;6.23;100.00;101694.97;5028266;28;20037;-78
2022/03/28 09:18:30;;;;;;;26.20;24.70;;;;;;;6.27;100.00;101703.44;5027383;28;20060;-80
2022/03/28 09:21:01;;;;;;;27.63;26.13;;;;;;;6.39;100.00;101693.53;5021389;28;20061;-79
2022/03/28 09:23:36;;;;;;;26.38;24.88;;;;;;;6.45;100.00;101692.63;5024552;28;20496;-79
2022/03/28 09:26:14;;;;;;;20.08;18.88;;;;;;;6.16;100.00;101691.53;5027116;28;20052;-82
2022/03/28 09:28:49;;;;;;;18.02;16.92;;;;;;;6.39;100.00;101692.72;5026880;28;20061;-78
2022/03/28 09:31:26;;;;;;;15.55;14.63;;;;;;;6.60;100.00;101686.84;5030210;28;20056;-79
2022/03/28 09:34:05;;;;;;;17.60;16.58;;;;;;;6.61;100.00;101687.66;5022733;28;20512;-81
2022/03/28 09:36:48;;;;;;;15.50;14.60;;;;;;;6.58;100.00;101686.22;5038866;28;20057;-80
2022/03/28 09:39:23;;;;;;;12.35;11.55;;;;;;;6.41;100.00;101677.09;5022940;28;20060;-81
2022/03/28 09:42:04;;;;;;;10.70;9.82;;;;;;;6.44;100.00;101682.03;5023847;28;20056;-81
2022/03/28 09:44:39;;;;;;;10.82;10.13;;;;;;;6.63;100.00;101680.97;5030360;28;20044;-79
2022/03/28 09:47:16;;;;;;;9.82;9.13;;;;;;;6.49;100.00;101679.50;5020630;28;20059;-81
2022/03/28 09:49:46;;;;;;;9.07;8.48;;;;;;;6.67;100.00;101683.19;5024120;28;20064;-79
2022/03/28 09:52:21;;;;;;;9.27;8.68;;;;;;;6.79;100.00;101676.81;5022498;28;20068;-79
2022/03/28 09:54:56;;;;;;;8.48;7.88;;;;;;;6.69;100.00;101673.00;5021176;28;20988;-79
2022/03/28 09:57:26;;;;;;;7.22;6.72;;;;;;;6.60;100.00;101670.59;5024414;28;20057;-78
2022/03/28 10:00:08;;;;;;;7.97;7.40;;;;;;;6.83;100.00;101657.38;5020381;28;20064;-80
2022/03/28 10:02:43;;;;;;;8.57;7.97;;;;;;;6.94;100.00;101664.72;5021569;28;20053;-79
2022/03/28 10:05:12;;;;;;;8.27;7.68;;;;;;;6.94;100.00;101662.81;5023361;28;20049;-80
2022/03/28 10:07:49;;;;;;;6.15;5.75;;;;;;;6.74;100.00;101663.13;5018777;28;20060;-78
2022/03/28 10:10:22;;;;;;;4.30;4.00;;;;;;;6.84;100.00;101645.53;5020072;28;20055;-79
2022/03/28 10:12:56;;;;;;;4.95;4.65;;;;;;;7.00;100.00;101644.81;5018228;28;20060;-80
2022/03/28 10:15:25;;;;;;;4.88;4.57;;;;;;;6.95;100.00;101642.81;5020145;28;20045;-82
2022/03/28 10:17:59;;;;;;;4.95;4.65;;;;;;;7.20;100.00;101641.81;5024017;28;20053;-80
2022/03/28 10:20:32;;;;;;;4.35;4.05;;;;;;;7.46;100.00;101634.31;5021382;28;20053;-77
2022/03/28 10:23:01;;;;;;;4.95;4.65;;;;;;;7.28;100.00;101630.66;5023930;28;20064;-77
2022/03/28 10:25:36;;;;;;;3.83;3.60;;;;;;;7.17;100.00;101633.31;5021227;28;20057;-78
2022/03/28 10:28:05;;;;;;;4.00;3.70;;;;;;;7.64;100.00;101628.75;5019059;28;20057;-78
2022/03/28 10:30:40;;;;;;;3.30;3.10;;;;;;;7.48;100.00;101633.03;5026455;28;20107;-77
2022/03/28 10:33:17;;;;;;;3.17;2.97;;;;;;;7.54;100.00;101617.72;5029433;28;20051;-77
2022/03/28 10:35:58;;;;;;;2.80;2.60;;;;;;;7.80;100.00;101615.53;5023606;28;20056;-80
2022/03/28 10:38:32;;;;;;;2.70;2.50;;;;;;;7.51;100.00;101620.88;5022800;28;20069;-77
2022/03/28 10:41:06;;;;;;;2.63;2.50;;;;;;;7.52;100.00;101602.75;5022683;28;20057;-80
2022/03/28 10:43:40;;;;;;;2.05;1.95;;;;;;;7.43;100.00;101603.09;5019166;28;20053;-80
2022/03/28 10:46:15;;;;;;;2.30;2.20;;;;;;;8.04;100.00;101599.22;5019696;28;20060;-78
2022/03/28 10:48:59;;;;;;;1.90;1.80;;;;;;;7.99;100.00;101592.63;5020224;28;20124;-78
2022/03/28 10:51:33;;;;;;;1.80;1.70;;;;;;;7.93;100.00;101598.22;5024829;28;20351;-79
2022/03/28 10:54:09;;;;;;;1.70;1.60;;;;;;;8.07;100.00;101587.91;5038511;28;20068;-79
2022/03/28 10:56:48;;;;;;;1.48;1.40;;;;;;;8.03;100.00;101589.47;5017164;28;20063;-79
2022/03/28 10:59:21;;;;;;;1.50;1.40;;;;;;;8.06;100.00;101583.56;5018726;28;20068;-78
2022/03/28 11:01:54;;;;;;;1.75;1.65;;;;;;;8.12;100.00;101571.72;5017206;28;20401;-78
2022/03/28 11:04:28;;;;;;;1.30;1.30;;;;;;;8.13;100.00;101573.38;5022249;28;21645;-77
2022/03/28 11:07:04;;;;;;;1.55;1.45;;;;;;;8.45;100.00;101553.94;5026643;28;20072;-77
2022/03/28 11:09:50;;;;;;;1.50;1.40;;;;;;;8.70;100.00;101566.31;5022588;28;20923;-78
2022/03/28 11:12:29;;;;;;;1.50;1.40;;;;;;;8.70;100.00;101550.03;5025655;28;20057;-79
2022/03/28 11:15:00;;;;;;;1.00;1.00;;;;;;;8.77;100.00;101550.69;5029397;28;20167;-80
2022/03/28 11:17:36;;;;;;;1.15;1.13;;;;;;;8.45;100.00;101545.81;5023046;28;20057;-78
2022/03/28 11:20:18;;;;;;;0.90;0.90;;;;;;;8.24;100.00;101544.59;5011349;28;20064;-80
2022/03/28 11:22:54;;;;;;;1.07;1.07;;;;;;;8.59;100.00;101549.03;5021175;28;20114;-80